Terminal Aerodrome Forecast
Issued by NWS

Home | Current Version | Previous Version | Text Only | Print | Product List | Glossary On
Versions: 1 2 3 4 5 6 7 8 9 10 11 12 13 14 15
000
FTUS44 KJAN 041100 RRA
TAFGTR
TAF
KGTR 041141Z 0412/0512 18010KT 6SM BR OVC015
     FM042100 26013G19KT 6SM RA BR OVC015
     FM042300 34012KT 6SM RA BR OVC015
     FM050200 35013G25KT 6SM RA BR OVC007=

USA.gov is the U.S. government's official web portal to all federal, state and local government web resources and services.